El Moro, Colorado
Current Conditions -  °F | °C
As of 3:54 AM on Friday 31 Oct 2014 (Local Time) from KTAD Reporting Station
Clear Clear  
Wind Chill:   Ceiling: Unl
Heat Index:   Visibility: 10mi
Dew Point: -6°   Wind: 6mph
Humidity: 57%   Direction: 270°W
Pressure: 30.4"   Gusts: NA
Location:  37.1661°N, 104.486°W
Report Text: KTAD 310954Z AUTO 27005KT 10SM CLR 02/M06 A3040 RMK AO2 SLP265 T00221056
Loading
Personal Weather Stations






























Interactive Weather Map
Tropical Storm Tracking
New forecast layout! Learn more

10-Day Weather Forecast

Advertisements
Track Severe Weather on mobile